Time;durP1;ratioP1;P1;durP2;ratioP2;P2;SDS_P1;SDS_P2;PMS_P1;PMS_P2;Temp;Humidity;BMP_temperature;BMP_pressure;BME280_temperature;BME280_humidity;BME280_pressure;Samples;Min_cycle;Max_cycle;Signal;HPM_P1;HPM_P2
2021/05/31 00:00:07;;;;;;;3.17;2.80;;;;;;;28.79;24.08;94428.50;5119063;28;20730;-57
2021/05/31 00:02:34;;;;;;;3.88;2.90;;;;;;;29.24;23.45;94428.41;5118899;28;20058;-63
2021/05/31 00:05:02;;;;;;;3.03;2.72;;;;;;;28.89;24.23;94423.44;5118098;28;20059;-68
2021/05/31 00:07:31;;;;;;;3.00;2.67;;;;;;;29.67;23.08;94417.13;5110165;28;20063;-64
2021/05/31 00:09:58;;;;;;;4.70;2.55;;;;;;;29.43;23.65;94417.03;5118889;28;20047;-64
2021/05/31 00:12:25;;;;;;;3.67;2.95;;;;;;;29.16;24.06;94411.59;5118837;28;20047;-60
2021/05/31 00:14:52;;;;;;;3.15;2.80;;;;;;;29.29;23.96;94417.19;5118894;28;20048;-64
2021/05/31 00:17:20;;;;;;;3.38;2.80;;;;;;;28.52;24.48;94411.50;5118115;28;20489;-61
2021/05/31 00:19:48;;;;;;;3.17;2.88;;;;;;;28.74;23.94;94407.44;5118689;28;20411;-59
2021/05/31 00:22:15;;;;;;;3.03;2.60;;;;;;;28.20;24.89;94412.56;5118593;28;20047;-64
2021/05/31 00:24:42;;;;;;;2.88;2.58;;;;;;;29.14;24.08;94405.06;5097162;28;20048;-62
2021/05/31 00:27:09;;;;;;;3.00;2.65;;;;;;;29.34;23.41;94416.75;5109094;28;20047;-57
2021/05/31 00:29:36;;;;;;;3.33;3.03;;;;;;;28.58;24.13;94407.22;5118694;28;20055;-61
2021/05/31 00:32:04;;;;;;;5.32;2.80;;;;;;;28.83;24.17;94405.03;5100314;28;20373;-64
2021/05/31 00:34:31;;;;;;;3.30;3.00;;;;;;;28.88;23.83;94411.16;5118579;28;20450;-55
2021/05/31 00:36:58;;;;;;;3.50;2.90;;;;;;;29.04;23.74;94408.66;5104907;28;20064;-56
2021/05/31 00:39:25;;;;;;;3.30;3.00;;;;;;;29.12;24.01;94405.47;5118602;28;20052;-57
2021/05/31 00:41:53;;;;;;;3.92;2.65;;;;;;;28.93;23.86;94397.28;5100205;28;20382;-58
2021/05/31 00:44:22;;;;;;;3.03;2.65;;;;;;;28.57;24.16;94397.63;5118200;28;20051;-56
2021/05/31 00:46:50;;;;;;;4.30;2.67;;;;;;;29.25;23.24;94408.41;5117772;28;20040;-66
2021/05/31 00:49:22;;;;;;;3.42;2.90;;;;;;;28.28;24.59;94399.84;5100213;28;20039;-65
2021/05/31 00:51:50;;;;;;;3.22;2.92;;;;;;;28.43;24.69;94392.41;5118047;28;20055;-55
2021/05/31 00:54:19;;;;;;;3.20;2.90;;;;;;;29.20;23.48;94395.41;5118132;28;20050;-62
2021/05/31 00:56:46;;;;;;;3.10;2.80;;;;;;;29.35;23.35;94396.72;5117343;28;20051;-57
2021/05/31 00:59:14;;;;;;;3.45;3.15;;;;;;;29.38;23.12;94389.75;5117939;28;20105;-57
2021/05/31 01:01:42;;;;;;;4.38;3.42;;;;;;;28.95;23.98;94390.34;5117844;28;20054;-69
2021/05/31 01:04:09;;;;;;;3.45;3.15;;;;;;;29.40;23.41;94382.03;5117801;28;20047;-66
2021/05/31 01:06:39;;;;;;;7.70;3.65;;;;;;;28.41;24.57;94378.59;5116237;28;20331;-54
2021/05/31 01:09:11;;;;;;;5.00;3.90;;;;;;;27.97;24.90;94374.75;5117788;28;20054;-55
2021/05/31 01:11:54;;;;;;;4.60;3.53;;;;;;;28.29;24.64;94371.78;5117971;28;20046;-66
2021/05/31 01:14:23;;;;;;;5.32;3.33;;;;;;;28.54;24.21;94382.28;5117673;28;20040;-58
2021/05/31 01:17:15;;;;;;;6.25;3.10;;;;;;;28.89;23.34;94373.13;5117129;28;20054;-61
2021/05/31 01:20:09;;;;;;;3.22;2.75;;;;;;;28.58;24.08;94366.13;5099586;28;20077;-55
2021/05/31 01:22:37;;;;;;;3.33;3.03;;;;;;;28.86;23.54;94377.34;5117530;28;20381;-62
2021/05/31 01:25:28;;;;;;;4.97;2.97;;;;;;;28.50;24.28;94374.28;5099584;28;20046;-63
2021/05/31 01:28:15;;;;;;;3.42;3.13;;;;;;;28.34;24.59;94367.91;5116679;28;20055;-63
2021/05/31 01:30:45;;;;;;;4.78;3.28;;;;;;;28.48;24.16;94367.78;5117470;28;20043;-60
2021/05/31 01:33:18;;;;;;;4.47;3.25;;;;;;;28.54;24.17;94371.53;5117120;28;20040;-61
2021/05/31 01:35:46;;;;;;;3.75;2.72;;;;;;;28.76;23.77;94370.16;5105878;28;20047;-63
2021/05/31 01:38:17;;;;;;;3.47;2.85;;;;;;;28.09;24.55;94363.50;5103017;28;20051;-56
2021/05/31 01:40:45;;;;;;;4.22;3.20;;;;;;;29.68;22.54;94364.78;5099402;28;20491;-63
2021/05/31 01:43:12;;;;;;;6.15;2.80;;;;;;;29.11;23.32;94354.75;5098926;28;20327;-67
2021/05/31 01:45:39;;;;;;;3.72;2.80;;;;;;;29.07;23.28;94362.13;5117039;28;20048;-55
2021/05/31 01:48:09;;;;;;;3.17;2.88;;;;;;;28.93;23.56;94360.38;5098581;28;20047;-60
2021/05/31 01:50:36;;;;;;;3.13;2.75;;;;;;;29.62;22.67;94355.59;5097901;28;20040;-56
2021/05/31 01:53:05;;;;;;;4.72;2.80;;;;;;;29.15;23.48;94347.41;5096529;28;20394;-68
2021/05/31 01:55:33;;;;;;;3.03;2.70;;;;;;;28.83;24.16;94351.22;5096495;28;20040;-65
2021/05/31 01:58:00;;;;;;;3.15;2.50;;;;;;;29.34;23.48;94344.06;5135221;27;20055;-56
2021/05/31 02:00:28;;;;;;;3.17;2.90;;;;;;;28.73;24.15;94346.75;5097631;28;20050;-63
2021/05/31 02:02:55;;;;;;;2.83;2.50;;;;;;;28.23;24.98;94344.56;5098401;28;20051;-58
2021/05/31 02:05:33;;;;;;;4.72;2.75;;;;;;;29.08;23.54;94334.78;5100798;28;20046;-65
2021/05/31 02:08:00;;;;;;;3.72;2.70;;;;;;;29.30;23.00;94335.28;5116281;28;20047;-62
2021/05/31 02:10:28;;;;;;;3.22;2.70;;;;;;;29.71;22.76;94340.47;5116476;28;20354;-57
2021/05/31 02:12:59;;;;;;;3.20;2.90;;;;;;;28.68;24.17;94333.75;5116398;28;20051;-62
2021/05/31 02:15:58;;;;;;;4.00;2.60;;;;;;;29.18;23.66;94330.47;5116487;28;20043;-54
2021/05/31 02:18:51;;;;;;;3.10;2.80;;;;;;;29.03;23.86;94329.09;5097290;28;20105;-65
2021/05/31 02:21:20;;;;;;;4.13;3.13;;;;;;;28.36;24.71;94334.09;5097933;28;20374;-66
2021/05/31 02:23:47;;;;;;;3.65;3.00;;;;;;;28.61;24.45;94333.81;5116243;28;20381;-64
2021/05/31 02:26:17;;;;;;;3.70;3.20;;;;;;;28.89;24.39;94331.97;5098212;28;20051;-66
2021/05/31 02:28:46;;;;;;;3.53;2.83;;;;;;;29.23;23.59;94334.63;5111720;28;20050;-61
2021/05/31 02:31:16;;;;;;;4.82;3.17;;;;;;;28.72;24.38;94334.47;5110398;28;20051;-66
2021/05/31 02:33:45;;;;;;;5.53;3.10;;;;;;;28.14;24.71;94328.16;5094742;28;20363;-61
2021/05/31 02:36:13;;;;;;;3.97;3.25;;;;;;;29.28;23.25;94328.78;5103038;28;20054;-69
2021/05/31 02:38:41;;;;;;;7.22;3.30;;;;;;;28.12;24.90;94327.78;5110381;28;20059;-67
2021/05/31 02:41:09;;;;;;;3.05;2.75;;;;;;;28.17;24.66;94321.22;5115314;28;20051;-68
2021/05/31 02:43:37;;;;;;;5.00;2.90;;;;;;;28.12;24.97;94325.09;5107070;28;20040;-66
2021/05/31 02:46:04;;;;;;;3.50;3.05;;;;;;;29.18;22.99;94325.06;5095628;28;20079;-70
2021/05/31 02:48:31;;;;;;;3.50;2.90;;;;;;;28.02;24.77;94336.69;5111532;28;20485;-68
2021/05/31 02:50:58;;;;;;;3.58;3.05;;;;;;;27.58;25.56;94322.06;5115522;28;20050;-69
2021/05/31 02:53:26;;;;;;;3.70;3.40;;;;;;;27.72;25.41;94323.16;5116056;28;20039;-61
2021/05/31 02:55:54;;;;;;;3.60;3.00;;;;;;;28.42;24.40;94327.13;5115537;28;20062;-54
2021/05/31 02:58:21;;;;;;;3.25;2.95;;;;;;;27.67;25.13;94321.66;5115681;28;20040;-70
2021/05/31 03:00:49;;;;;;;4.38;2.95;;;;;;;27.82;25.05;94322.28;5115239;28;20055;-63
2021/05/31 03:03:16;;;;;;;3.78;2.95;;;;;;;28.22;24.36;94324.22;5115632;28;20043;-67
2021/05/31 03:05:43;;;;;;;3.47;2.80;;;;;;;28.64;23.66;94330.34;5115288;28;20488;-61
2021/05/31 03:08:10;;;;;;;3.55;2.95;;;;;;;28.39;24.31;94330.63;5115308;28;20373;-63
2021/05/31 03:10:38;;;;;;;3.75;3.35;;;;;;;28.33;24.25;94326.06;5115603;28;20409;-64
2021/05/31 03:13:05;;;;;;;3.10;2.80;;;;;;;28.77;24.03;94325.19;5115405;28;20043;-62
2021/05/31 03:15:33;;;;;;;3.38;3.08;;;;;;;28.83;23.97;94324.31;5115373;28;20446;-64
2021/05/31 03:18:00;;;;;;;3.10;2.80;;;;;;;28.03;24.83;94327.47;5115078;28;20460;-65
2021/05/31 03:20:29;;;;;;;3.95;3.17;;;;;;;29.01;23.67;94326.06;5115287;28;20047;-56
2021/05/31 03:22:57;;;;;;;4.25;3.15;;;;;;;28.47;24.10;94323.22;5115020;28;20047;-66
2021/05/31 03:25:24;;;;;;;3.38;2.80;;;;;;;29.33;23.39;94318.31;5115251;28;20059;-64
2021/05/31 03:27:53;;;;;;;3.45;2.85;;;;;;;28.74;24.00;94316.00;5114795;28;20054;-60
2021/05/31 03:30:21;;;;;;;4.28;3.28;;;;;;;29.09;23.61;94314.03;5114903;28;20048;-66
2021/05/31 03:32:48;;;;;;;5.00;4.15;;;;;;;28.52;24.08;94315.47;5114845;28;20039;-68
2021/05/31 03:35:15;;;;;;;4.00;3.60;;;;;;;28.52;24.20;94303.97;5114765;28;20039;-67
2021/05/31 03:37:43;;;;;;;4.03;3.63;;;;;;;28.95;23.70;94325.75;5114747;28;20370;-69
2021/05/31 03:40:14;;;;;;;5.22;3.97;;;;;;;29.64;22.24;94315.56;5114468;28;20314;-68
2021/05/31 03:42:42;;;;;;;4.25;3.40;;;;;;;28.59;24.04;94325.38;5114793;28;20044;-64
2021/05/31 03:45:10;;;;;;;4.15;3.55;;;;;;;29.22;23.47;94315.00;5114973;28;20469;-68
2021/05/31 03:47:37;;;;;;;3.47;3.17;;;;;;;28.93;24.18;94332.72;5114921;28;20385;-68
2021/05/31 03:50:05;;;;;;;3.70;3.40;;;;;;;28.68;24.51;94330.31;5115046;28;20399;-61
2021/05/31 03:52:33;;;;;;;4.45;3.53;;;;;;;29.39;23.46;94332.81;5114690;28;20049;-68
2021/05/31 03:55:00;;;;;;;3.58;3.28;;;;;;;28.77;23.63;94331.31;5096826;28;20047;-58
2021/05/31 03:57:28;;;;;;;3.75;3.35;;;;;;;28.28;24.35;94329.19;5114179;28;20058;-67
2021/05/31 03:59:55;;;;;;;4.80;3.85;;;;;;;28.25;24.48;94328.81;5114703;28;20043;-56
2021/05/31 04:02:23;;;;;;;3.80;3.50;;;;;;;28.61;23.78;94323.06;5114250;28;20047;-68
2021/05/31 04:04:54;;;;;;;4.00;3.58;;;;;;;28.83;23.68;94324.31;5096572;28;20048;-54
2021/05/31 04:11:33;;;;;;;4.15;3.75;;;;;;;28.62;23.51;94329.19;5114512;28;20047;-60
2021/05/31 04:12:56;;;;;;;3.80;3.50;;;;;;;28.47;23.94;94339.38;5111158;28;20054;-50
2021/05/31 04:15:23;;;;;;;6.95;5.40;;;;;;;28.96;23.92;94334.59;5103631;28;20040;-58
2021/05/31 04:17:51;;;;;;;7.07;4.95;;;;;;;28.55;24.37;94335.41;5115397;28;20070;-62
2021/05/31 04:20:19;;;;;;;5.00;4.50;;;;;;;29.14;23.06;94337.78;5114695;28;20047;-64
2021/05/31 04:22:46;;;;;;;4.75;4.32;;;;;;;27.85;25.36;94332.25;5113033;28;20054;-58
2021/05/31 04:25:14;;;;;;;6.82;4.70;;;;;;;28.29;24.81;94328.78;5114576;28;20462;-57
2021/05/31 04:27:41;;;;;;;5.32;4.82;;;;;;;28.06;25.03;94332.06;5114265;28;20053;-58
2021/05/31 04:30:09;;;;;;;6.28;4.80;;;;;;;29.05;23.74;94332.16;5114608;28;20054;-58
2021/05/31 04:32:37;;;;;;;6.82;4.85;;;;;;;28.11;25.22;94334.34;5106146;28;20044;-58
2021/05/31 04:35:05;;;;;;;5.75;4.65;;;;;;;28.33;25.26;94321.44;5098872;28;20053;-61
2021/05/31 04:37:33;;;;;;;5.97;5.00;;;;;;;28.72;24.96;94323.72;5114248;28;20047;-69
2021/05/31 04:40:02;;;;;;;5.63;5.03;;;;;;;26.84;27.05;94325.97;5106750;28;20367;-52
2021/05/31 04:42:29;;;;;;;7.75;5.15;;;;;;;24.81;31.85;94327.91;5110687;28;20040;-55
2021/05/31 04:44:56;;;;;;;5.60;4.65;;;;;;;25.17;30.12;94321.53;5118055;28;20046;-54
2021/05/31 04:47:25;;;;;;;6.18;5.03;;;;;;;25.75;29.69;94322.34;5117910;28;20078;-55
2021/05/31 04:49:53;;;;;;;6.43;4.78;;;;;;;26.28;28.59;94319.59;5118246;27;20043;-55
2021/05/31 04:52:21;;;;;;;5.32;4.40;;;;;;;26.50;28.23;94309.63;5115015;28;20048;-54
2021/05/31 04:54:50;;;;;;;5.50;4.40;;;;;;;26.77;27.45;94315.25;5118088;28;20078;-54
2021/05/31 04:57:17;;;;;;;5.10;4.60;;;;;;;27.16;26.79;94325.06;5117447;28;20040;-53
2021/05/31 04:59:44;;;;;;;5.55;4.30;;;;;;;26.48;27.79;94314.59;5097683;28;20051;-55
2021/05/31 05:02:12;;;;;;;4.25;3.83;;;;;;;27.07;26.87;94311.31;5106755;28;20040;-56
2021/05/31 05:04:39;;;;;;;4.45;4.05;;;;;;;26.91;26.98;94317.88;5133525;27;20058;-55
2021/05/31 05:07:06;;;;;;;4.90;4.40;;;;;;;27.54;26.02;94315.19;5117768;28;20051;-61
2021/05/31 05:09:33;;;;;;;5.05;4.57;;;;;;;26.54;27.65;94312.28;5099915;28;20740;-55
2021/05/31 05:12:00;;;;;;;4.47;4.07;;;;;;;27.29;26.59;94312.69;5104597;28;20461;-54
2021/05/31 05:14:27;;;;;;;5.13;3.80;;;;;;;26.67;26.89;94316.06;5117817;28;20051;-54
2021/05/31 05:16:54;;;;;;;4.53;4.13;;;;;;;26.54;27.57;94321.09;5117728;28;20043;-56
2021/05/31 05:19:21;;;;;;;4.25;3.85;;;;;;;26.84;27.14;94314.47;5116136;28;20047;-55
2021/05/31 05:21:49;;;;;;;4.00;3.70;;;;;;;27.02;27.40;94323.97;5095708;28;20074;-58
2021/05/31 05:24:16;;;;;;;4.60;4.15;;;;;;;27.25;27.18;94320.00;5097060;28;20055;-54
2021/05/31 05:26:43;;;;;;;4.57;3.92;;;;;;;27.52;26.80;94326.34;5091502;28;20050;-55
2021/05/31 05:29:10;;;;;;;4.05;3.63;;;;;;;27.55;26.77;94319.41;5117252;28;20044;-57
2021/05/31 05:31:38;;;;;;;6.72;3.67;;;;;;;27.38;26.19;94321.09;5117008;28;20051;-55
2021/05/31 05:34:06;;;;;;;4.22;3.83;;;;;;;28.16;25.42;94336.56;5117353;28;20358;-57
2021/05/31 05:36:49;;;;;;;4.18;3.40;;;;;;;28.01;25.32;94324.44;5100796;28;20051;-56
2021/05/31 05:49:45;;;;;;;3.42;3.13;;;;;;;27.93;25.93;94333.72;5116867;28;20047;-55
2021/05/31 05:52:13;;;;;;;4.15;3.67;;;;;;;27.54;25.66;94329.38;5115477;28;20044;-56
2021/05/31 05:54:41;;;;;;;5.22;4.10;;;;;;;27.73;25.87;94325.44;5117000;28;20043;-55
2021/05/31 05:57:08;;;;;;;4.05;3.65;;;;;;;27.61;25.82;94326.66;5116632;28;20040;-55
2021/05/31 05:59:36;;;;;;;5.93;4.82;;;;;;;26.69;27.04;94324.47;5116563;28;20055;-55
2021/05/31 06:02:03;;;;;;;7.13;5.88;;;;;;;27.06;27.27;94323.19;5116334;28;20054;-54
2021/05/31 06:04:30;;;;;;;7.07;4.90;;;;;;;26.97;27.28;94335.09;5116614;28;20054;-56
2021/05/31 06:06:57;;;;;;;6.80;4.93;;;;;;;26.93;26.81;94339.69;5096200;28;20048;-54
2021/05/31 06:09:24;;;;;;;5.05;4.50;;;;;;;26.79;27.03;94323.66;5113464;28;20052;-56
2021/05/31 06:11:52;;;;;;;4.80;4.32;;;;;;;27.00;26.79;94326.28;5116216;28;20454;-55
2021/05/31 06:14:19;;;;;;;4.80;4.30;;;;;;;27.34;26.15;94336.44;5098476;28;20044;-54
2021/05/31 06:16:46;;;;;;;5.00;4.47;;;;;;;26.80;27.14;94329.78;5116567;28;20050;-54
2021/05/31 06:19:14;;;;;;;5.93;4.57;;;;;;;26.82;26.99;94317.53;5116103;28;20485;-58
2021/05/31 06:21:41;;;;;;;4.13;3.72;;;;;;;27.24;26.86;94315.78;5115977;28;20055;-57
2021/05/31 06:24:10;;;;;;;6.18;4.00;;;;;;;27.06;27.03;94309.75;5098233;28;20056;-56
2021/05/31 06:26:37;;;;;;;3.80;3.50;;;;;;;27.74;26.04;94318.16;5104098;28;20355;-56
2021/05/31 06:29:05;;;;;;;5.32;3.90;;;;;;;27.68;25.96;94317.06;5116124;28;20051;-56
2021/05/31 06:31:32;;;;;;;4.13;3.58;;;;;;;26.99;26.38;94305.22;5104921;28;20477;-59
2021/05/31 06:33:59;;;;;;;3.97;3.20;;;;;;;27.14;26.79;94312.03;5094568;28;20048;-56
2021/05/31 06:36:27;;;;;;;4.35;3.58;;;;;;;27.35;26.56;94311.13;5111526;28;20059;-55
2021/05/31 06:38:54;;;;;;;7.55;5.25;;;;;;;27.46;26.17;94314.50;5116009;28;20056;-56
2021/05/31 06:41:21;;;;;;;8.10;6.32;;;;;;;27.44;26.45;94308.75;5099225;28;20047;-57
2021/05/31 06:43:48;;;;;;;24.33;18.10;;;;;;;27.15;26.39;94308.19;5115062;28;20047;-57
2021/05/31 06:46:17;;;;;;;8.95;7.63;;;;;;;27.38;25.99;94310.34;5115905;28;20047;-54
2021/05/31 06:48:44;;;;;;;8.27;6.32;;;;;;;27.74;25.34;94310.09;5115728;28;20043;-55
2021/05/31 06:51:13;;;;;;;6.35;5.25;;;;;;;27.41;25.58;94306.88;5111736;28;20075;-55
2021/05/31 06:53:40;;;;;;;6.32;4.68;;;;;;;27.36;25.25;94309.97;5113700;28;20055;-58
2021/05/31 06:56:08;;;;;;;4.25;3.80;;;;;;;27.50;25.03;94306.41;5115622;28;20676;-56
2021/05/31 06:58:35;;;;;;;4.75;4.10;;;;;;;27.52;25.27;94310.22;5106417;27;20043;-56
2021/05/31 07:01:02;;;;;;;4.85;4.18;;;;;;;27.47;25.97;94309.88;5115653;28;20039;-54
2021/05/31 07:03:30;;;;;;;6.00;3.80;;;;;;;27.49;25.48;94313.69;5114846;28;20051;-61
2021/05/31 07:05:57;;;;;;;4.90;4.40;;;;;;;26.97;26.07;94308.25;5106118;28;20055;-59
2021/05/31 07:08:26;;;;;;;4.95;4.18;;;;;;;27.36;25.43;94311.91;5115188;28;20051;-56
2021/05/31 07:10:56;;;;;;;4.32;3.92;;;;;;;27.60;26.87;94314.41;5115514;28;20368;-55
2021/05/31 07:13:24;;;;;;;4.53;4.00;;;;;;;28.03;26.04;94313.28;5115323;28;20051;-61
2021/05/31 07:15:53;;;;;;;4.07;3.42;;;;;;;27.85;25.46;94313.47;5115364;28;20036;-61
2021/05/31 07:18:20;;;;;;;4.85;3.78;;;;;;;28.19;25.09;94313.53;5113376;28;20051;-61
2021/05/31 07:20:49;;;;;;;4.30;3.40;;;;;;;28.53;24.21;94300.88;5094916;28;20048;-61
2021/05/31 07:23:17;;;;;;;4.05;3.65;;;;;;;28.65;24.71;94299.59;5094904;28;20039;-55
2021/05/31 07:25:45;;;;;;;4.25;3.50;;;;;;;28.11;24.86;94295.94;5094927;28;20074;-55
2021/05/31 07:28:14;;;;;;;4.35;3.35;;;;;;;28.20;24.70;94302.38;5114584;28;20051;-56
2021/05/31 07:30:41;;;;;;;3.80;3.38;;;;;;;27.88;24.79;94304.59;5115186;28;20051;-56
2021/05/31 07:33:13;;;;;;;4.03;3.30;;;;;;;28.18;24.69;94302.00;5115218;28;20113;-57
2021/05/31 07:35:40;;;;;;;4.13;3.40;;;;;;;27.94;24.91;94292.25;5114828;28;20442;-54
2021/05/31 07:38:08;;;;;;;3.80;3.22;;;;;;;28.35;24.18;94307.59;5114441;28;20343;-56
2021/05/31 07:40:35;;;;;;;3.33;2.90;;;;;;;28.01;24.94;94308.31;5115088;28;20481;-54
2021/05/31 07:43:02;;;;;;;20.65;14.57;;;;;;;28.80;25.06;94300.94;5115106;28;20059;-57
2021/05/31 07:45:29;;;;;;;8.98;7.05;;;;;;;28.10;24.95;94299.78;5114955;28;20056;-54
2021/05/31 07:47:57;;;;;;;5.60;4.55;;;;;;;28.59;24.56;94297.72;5094785;28;20044;-55
2021/05/31 07:50:24;;;;;;;5.55;4.82;;;;;;;28.68;24.30;94287.28;5115006;28;20054;-58
2021/05/31 07:52:51;;;;;;;4.75;3.90;;;;;;;28.64;23.61;94287.31;5114953;28;20039;-55
2021/05/31 07:55:18;;;;;;;3.72;3.35;;;;;;;28.98;23.54;94283.81;5114862;28;20447;-54
2021/05/31 07:57:46;;;;;;;5.15;4.20;;;;;;;28.80;24.31;94286.72;5114699;28;20039;-57
2021/05/31 08:00:19;;;;;;;4.75;3.38;;;;;;;29.92;22.38;94288.16;5114921;28;20051;-55
2021/05/31 08:02:48;;;;;;;3.75;3.40;;;;;;;28.54;24.28;94277.44;5097524;28;20048;-56
2021/05/31 08:05:16;;;;;;;3.78;3.22;;;;;;;29.06;23.85;94277.94;5100129;28;20043;-56
2021/05/31 08:07:44;;;;;;;4.47;2.97;;;;;;;28.95;23.60;94277.34;5114517;28;20051;-57
2021/05/31 08:10:13;;;;;;;3.05;2.78;;;;;;;28.95;23.92;94287.34;5114462;28;20048;-55
2021/05/31 08:12:40;;;;;;;4.13;3.00;;;;;;;29.13;23.50;94283.19;5114738;28;20070;-54
2021/05/31 08:15:08;;;;;;;3.28;2.97;;;;;;;28.94;23.21;94283.88;5116059;28;20362;-55
2021/05/31 08:17:36;;;;;;;3.28;2.95;;;;;;;28.60;23.59;94283.13;5118604;28;20047;-54
2021/05/31 08:20:05;;;;;;;6.43;2.90;;;;;;;28.06;23.77;94281.00;5118474;28;20051;-56
2021/05/31 08:22:32;;;;;;;3.00;2.70;;;;;;;28.19;24.16;94276.66;5118584;28;20446;-55
2021/05/31 08:25:01;;;;;;;10.93;2.60;;;;;;;28.02;23.54;94277.59;5118648;28;20050;-53
2021/05/31 08:27:29;;;;;;;4.80;2.55;;;;;;;28.56;23.50;94289.31;5115527;28;20047;-55
2021/05/31 08:29:56;;;;;;;2.65;2.30;;;;;;;28.94;23.18;94289.25;5106844;28;20366;-54
2021/05/31 08:32:23;;;;;;;2.67;2.47;;;;;;;28.93;23.09;94284.28;5098092;28;20044;-56
2021/05/31 08:34:50;;;;;;;4.57;3.60;;;;;;;28.11;24.03;94279.81;5082752;28;20044;-54
2021/05/31 08:37:17;;;;;;;6.03;4.97;;;;;;;28.99;22.73;94279.97;5110627;28;20059;-56
2021/05/31 08:39:46;;;;;;;6.63;5.90;;;;;;;28.73;23.40;94279.50;5117556;28;20052;-56
2021/05/31 08:42:13;;;;;;;6.15;4.40;;;;;;;28.73;23.07;94276.81;5118318;28;20051;-55
2021/05/31 08:44:41;;;;;;;5.75;5.20;;;;;;;28.55;23.52;94271.66;5118280;28;20043;-55
2021/05/31 08:47:10;;;;;;;5.05;3.90;;;;;;;28.59;23.22;94271.59;5118034;28;20046;-57
2021/05/31 08:49:38;;;;;;;3.42;3.13;;;;;;;28.39;22.93;94246.53;5117977;28;20357;-56
2021/05/31 08:52:06;;;;;;;3.72;3.33;;;;;;;28.76;22.76;94281.38;5100105;28;20044;-55
2021/05/31 08:54:33;;;;;;;3.70;3.30;;;;;;;28.98;23.46;94281.13;5118257;28;20054;-55
2021/05/31 08:57:01;;;;;;;3.65;3.00;;;;;;;28.51;24.00;94270.94;5117652;28;20039;-54
2021/05/31 08:59:28;;;;;;;3.28;2.90;;;;;;;29.15;23.11;94274.75;5096308;28;20474;-57
2021/05/31 09:01:55;;;;;;;4.82;2.90;;;;;;;28.83;23.37;94278.59;5097555;28;20051;-57
2021/05/31 09:04:24;;;;;;;2.95;2.67;;;;;;;29.04;22.96;94274.88;5097768;28;20047;-54
2021/05/31 09:06:56;;;;;;;3.08;2.70;;;;;;;29.12;23.09;94265.53;5116444;28;20070;-55
2021/05/31 09:09:43;;;;;;;4.43;2.58;;;;;;;29.09;22.16;94274.44;5117639;28;20056;-55
2021/05/31 09:12:12;;;;;;;3.25;2.70;;;;;;;28.93;22.94;94268.16;5117469;28;20043;-56
2021/05/31 09:14:42;;;;;;;3.03;2.60;;;;;;;28.43;23.76;94266.81;5117822;28;20146;-54
2021/05/31 09:17:09;;;;;;;2.95;2.65;;;;;;;29.54;21.82;94263.41;5130033;27;20048;-55
2021/05/31 09:19:46;;;;;;;3.95;2.25;;;;;;;29.76;21.51;94263.81;5109855;28;20051;-56
2021/05/31 09:22:13;;;;;;;4.75;2.50;;;;;;;29.20;21.83;94266.22;5117500;28;20051;-56
2021/05/31 09:24:40;;;;;;;2.47;2.28;;;;;;;29.18;22.59;94268.56;5117517;28;20051;-55
2021/05/31 09:27:07;;;;;;;2.83;2.55;;;;;;;28.84;22.09;94260.53;5116440;28;20047;-54
2021/05/31 09:29:35;;;;;;;3.80;2.33;;;;;;;29.05;22.15;94264.88;5099256;28;20391;-57
2021/05/31 09:32:03;;;;;;;2.60;2.30;;;;;;;28.69;22.94;94249.22;5117182;28;20047;-55
2021/05/31 09:34:31;;;;;;;3.15;2.42;;;;;;;29.38;22.41;94255.91;5117445;28;20043;-57
2021/05/31 09:37:00;;;;;;;2.60;2.30;;;;;;;29.96;21.99;94251.13;5095738;28;20040;-56
2021/05/31 09:39:29;;;;;;;2.78;2.33;;;;;;;29.48;22.29;94253.50;5114068;28;20062;-56
2021/05/31 09:42:12;;;;;;;2.58;2.03;;;;;;;29.84;21.27;94243.66;5117062;28;20044;-54
2021/05/31 09:44:40;;;;;;;2.28;2.08;;;;;;;29.30;22.16;94249.13;5099730;28;20450;-55
2021/05/31 09:47:07;;;;;;;2.63;2.10;;;;;;;29.99;21.73;94244.91;5116979;28;20039;-59
2021/05/31 09:49:36;;;;;;;5.25;2.45;;;;;;;29.98;21.06;94243.41;5116642;28;20050;-55
2021/05/31 09:52:04;;;;;;;2.90;2.15;;;;;;;29.81;21.05;94239.09;5117140;28;20350;-63
2021/05/31 09:54:31;;;;;;;2.10;1.90;;;;;;;29.83;20.87;94235.97;5117346;28;20050;-60
2021/05/31 09:57:16;;;;;;;3.63;1.70;;;;;;;29.22;22.05;94239.66;5106835;28;20044;-58
2021/05/31 09:59:45;;;;;;;7.18;1.90;;;;;;;30.03;21.26;94234.09;5116724;28;20050;-58
2021/05/31 10:02:16;;;;;;;2.63;2.00;;;;;;;30.07;21.12;94232.84;5116599;28;20051;-54
2021/05/31 10:04:54;;;;;;;2.30;1.80;;;;;;;30.06;21.74;94234.03;5116671;28;20055;-55
2021/05/31 10:09:51;;;;;;;2.00;1.80;;;;;;;30.18;21.60;94224.56;5116348;28;20067;-59
2021/05/31 10:12:18;;;;;;;3.63;1.67;;;;;;;30.63;20.25;94222.13;5116551;28;20043;-62
2021/05/31 10:14:47;;;;;;;3.28;1.90;;;;;;;29.78;21.02;94221.06;5116582;28;20044;-56
2021/05/31 10:17:14;;;;;;;7.30;5.40;;;;;;;29.95;20.39;94228.06;5094788;28;20358;-56
2021/05/31 10:19:42;;;;;;;13.48;10.60;;;;;;;30.13;20.48;94216.19;5107449;28;20047;-55
2021/05/31 10:22:11;;;;;;;6.88;6.15;;;;;;;30.67;19.69;94217.41;5116276;28;20442;-54
2021/05/31 10:24:39;;;;;;;4.72;3.10;;;;;;;30.08;20.10;94226.28;5116464;28;20077;-55
2021/05/31 10:27:08;;;;;;;2.95;2.53;;;;;;;30.05;20.70;94210.94;5105358;28;20058;-57
2021/05/31 10:29:36;;;;;;;4.28;2.45;;;;;;;29.74;20.87;94212.28;5094723;28;20048;-55
2021/05/31 10:32:09;;;;;;;3.47;2.20;;;;;;;30.30;20.17;94215.84;5094766;28;20438;-56
2021/05/31 10:34:51;;;;;;;3.22;1.95;;;;;;;30.34;19.90;94205.00;5095258;28;20048;-54
2021/05/31 10:37:24;;;;;;;2.25;2.05;;;;;;;30.12;19.89;94209.28;5115784;28;20055;-55
2021/05/31 10:40:09;;;;;;;7.22;2.17;;;;;;;30.41;19.58;94196.75;5115013;28;20054;-55
2021/05/31 10:42:48;;;;;;;2.42;1.77;;;;;;;30.52;19.66;94191.91;5116067;28;20047;-58
2021/05/31 10:45:24;;;;;;;2.65;1.90;;;;;;;31.03;19.77;94183.50;5115893;28;20048;-57
2021/05/31 10:48:15;;;;;;;2.33;1.92;;;;;;;31.19;19.39;94186.97;5115159;28;20055;-59
2021/05/31 10:50:52;;;;;;;3.20;1.60;;;;;;;31.04;18.90;94183.09;5097542;28;20343;-56
2021/05/31 10:53:32;;;;;;;2.00;1.52;;;;;;;30.71;19.18;94184.22;5115815;28;20055;-54
2021/05/31 10:56:07;;;;;;;2.20;1.70;;;;;;;30.76;19.62;94176.41;5115473;28;20369;-55
2021/05/31 10:58:40;;;;;;;1.77;1.55;;;;;;;30.77;19.66;94179.84;5115390;28;20047;-52
2021/05/31 11:01:12;;;;;;;1.73;1.45;;;;;;;30.68;19.52;94181.16;5115592;28;20039;-55
2021/05/31 11:03:59;;;;;;;2.45;1.65;;;;;;;31.28;18.81;94184.47;5115754;28;20054;-57
2021/05/31 11:06:30;;;;;;;2.53;1.52;;;;;;;31.14;19.25;94179.34;5115211;28;20069;-56
2021/05/31 11:09:14;;;;;;;2.63;1.45;;;;;;;30.38;19.69;94184.88;5115091;28;20058;-55
2021/05/31 11:11:53;;;;;;;1.80;1.60;;;;;;;30.89;19.68;94174.53;5115469;28;20477;-54
2021/05/31 11:14:39;;;;;;;1.33;1.20;;;;;;;30.90;19.93;94175.31;5115574;28;20047;-58
2021/05/31 11:17:18;;;;;;;1.55;1.35;;;;;;;30.98;19.42;94171.28;5098590;28;20040;-58
2021/05/31 11:19:50;;;;;;;1.70;1.60;;;;;;;31.09;19.05;94163.69;5115225;28;20054;-57
2021/05/31 11:22:18;;;;;;;;;;;;;;;30.91;18.86;94161.38;5115720;28;20040;-53
2021/05/31 11:24:53;;;;;;;2.28;1.70;;;;;;;31.10;19.40;94167.91;5115397;28;19930;-55
2021/05/31 11:27:29;;;;;;;2.67;1.50;;;;;;;30.50;19.50;94164.59;5114703;28;20046;-54
2021/05/31 11:30:00;;;;;;;2.40;1.35;;;;;;;30.85;19.14;94163.06;5114878;28;20555;-54
2021/05/31 11:32:27;;;;;;;4.82;1.67;;;;;;;30.64;18.96;94164.31;5115228;28;20050;-55
2021/05/31 11:35:00;;;;;;;2.45;1.65;;;;;;;30.59;19.53;94167.47;5115005;28;20090;-56
2021/05/31 11:37:29;;;;;;;2.13;1.92;;;;;;;30.50;19.61;94164.59;5114897;28;20750;-55
2021/05/31 11:39:57;;;;;;;5.13;1.70;;;;;;;30.12;20.22;94166.16;5114743;28;20489;-53
2021/05/31 11:42:25;;;;;;;1.83;1.40;;;;;;;30.86;19.06;94174.63;5097163;28;20485;-56
2021/05/31 11:44:54;;;;;;;3.40;1.20;;;;;;;30.72;19.75;94174.97;5115086;28;20050;-55
2021/05/31 11:47:33;;;;;;;1.98;1.33;;;;;;;29.52;21.46;94162.66;5114540;28;20059;-53
2021/05/31 11:50:00;;;;;;;1.63;1.30;;;;;;;30.20;20.73;94167.56;5114280;28;20477;-55
2021/05/31 11:52:28;;;;;;;2.05;1.25;;;;;;;30.07;20.88;94162.78;5115023;28;20054;-54
2021/05/31 11:54:56;;;;;;;1.98;1.42;;;;;;;29.52;21.79;94168.03;5115071;28;20082;-56
2021/05/31 11:57:26;;;;;;;1.60;1.30;;;;;;;29.67;21.28;94169.31;5114462;28;20047;-55
2021/05/31 11:59:55;;;;;;;3.08;1.40;;;;;;;29.77;21.06;94168.34;5108701;28;20050;-56